sensor_id;sensor_type;location;lat;lon;timestamp;P1;durP1;ratioP1;P2;durP2;ratioP2
58758;SDS011;46777;47.482;19.054;2022-07-05T00:00:26;5.68;;;5.18;;
58758;SDS011;46777;47.482;19.054;2022-07-05T00:03:11;6.82;;;5.47;;
58758;SDS011;46777;47.482;19.054;2022-07-05T00:05:56;5.78;;;5.25;;
58758;SDS011;46777;47.482;19.054;2022-07-05T00:08:41;5.80;;;5.30;;
58758;SDS011;46777;47.482;19.054;2022-07-05T00:11:26;6.97;;;5.65;;
58758;SDS011;46777;47.482;19.054;2022-07-05T00:14:11;7.80;;;5.45;;
58758;SDS011;46777;47.482;19.054;2022-07-05T00:16:56;7.03;;;5.57;;
58758;SDS011;46777;47.482;19.054;2022-07-05T00:19:41;7.85;;;5.90;;
58758;SDS011;46777;47.482;19.054;2022-07-05T00:22:26;5.72;;;5.13;;
58758;SDS011;46777;47.482;19.054;2022-07-05T00:25:11;14.35;;;13.55;;
58758;SDS011;46777;47.482;19.054;2022-07-05T00:27:55;7.07;;;5.35;;
58758;SDS011;46777;47.482;19.054;2022-07-05T00:30:41;6.88;;;5.28;;
58758;SDS011;46777;47.482;19.054;2022-07-05T00:33:26;7.43;;;5.70;;
58758;SDS011;46777;47.482;19.054;2022-07-05T00:36:11;5.40;;;4.90;;
58758;SDS011;46777;47.482;19.054;2022-07-05T00:38:55;6.20;;;5.60;;
58758;SDS011;46777;47.482;19.054;2022-07-05T00:41:40;5.60;;;5.18;;
58758;SDS011;46777;47.482;19.054;2022-07-05T00:44:29;6.00;;;5.50;;
58758;SDS011;46777;47.482;19.054;2022-07-05T00:47:16;7.03;;;5.73;;
58758;SDS011;46777;47.482;19.054;2022-07-05T00:50:01;8.98;;;5.95;;
58758;SDS011;46777;47.482;19.054;2022-07-05T00:52:46;8.10;;;6.03;;
58758;SDS011;46777;47.482;19.054;2022-07-05T00:55:31;6.60;;;5.72;;
58758;SDS011;46777;47.482;19.054;2022-07-05T00:58:15;6.75;;;6.05;;
58758;SDS011;46777;47.482;19.054;2022-07-05T01:01:01;5.57;;;5.03;;
58758;SDS011;46777;47.482;19.054;2022-07-05T01:03:48;5.55;;;5.15;;
58758;SDS011;46777;47.482;19.054;2022-07-05T01:06:33;5.65;;;5.25;;
58758;SDS011;46777;47.482;19.054;2022-07-05T01:09:18;5.22;;;4.82;;
58758;SDS011;46777;47.482;19.054;2022-07-05T01:12:04;5.55;;;5.05;;
58758;SDS011;46777;47.482;19.054;2022-07-05T01:14:49;6.45;;;5.20;;
58758;SDS011;46777;47.482;19.054;2022-07-05T01:17:36;5.50;;;5.00;;
58758;SDS011;46777;47.482;19.054;2022-07-05T01:20:21;5.20;;;4.80;;
58758;SDS011;46777;47.482;19.054;2022-07-05T01:23:06;6.00;;;4.88;;
58758;SDS011;46777;47.482;19.054;2022-07-05T01:25:51;5.10;;;4.60;;
58758;SDS011;46777;47.482;19.054;2022-07-05T01:28:37;4.90;;;4.45;;
58758;SDS011;46777;47.482;19.054;2022-07-05T01:31:22;5.43;;;4.70;;
58758;SDS011;46777;47.482;19.054;2022-07-05T01:34:07;5.72;;;5.10;;
58758;SDS011;46777;47.482;19.054;2022-07-05T01:36:52;5.45;;;4.75;;
58758;SDS011;46777;47.482;19.054;2022-07-05T01:39:37;5.10;;;4.60;;
58758;SDS011;46777;47.482;19.054;2022-07-05T01:42:22;5.40;;;5.00;;
58758;SDS011;46777;47.482;19.054;2022-07-05T01:45:06;5.30;;;4.80;;
58758;SDS011;46777;47.482;19.054;2022-07-05T01:47:51;5.88;;;5.18;;
58758;SDS011;46777;47.482;19.054;2022-07-05T01:50:38;5.65;;;5.05;;
58758;SDS011;46777;47.482;19.054;2022-07-05T01:53:29;5.40;;;5.00;;
58758;SDS011;46777;47.482;19.054;2022-07-05T01:56:15;5.38;;;4.88;;
58758;SDS011;46777;47.482;19.054;2022-07-05T01:59:00;5.68;;;5.07;;
58758;SDS011;46777;47.482;19.054;2022-07-05T02:01:45;6.20;;;5.70;;
58758;SDS011;46777;47.482;19.054;2022-07-05T02:04:30;5.68;;;5.20;;
58758;SDS011;46777;47.482;19.054;2022-07-05T02:07:17;5.68;;;5.18;;
58758;SDS011;46777;47.482;19.054;2022-07-05T02:10:03;5.30;;;4.90;;
58758;SDS011;46777;47.482;19.054;2022-07-05T02:12:48;5.40;;;4.90;;
58758;SDS011;46777;47.482;19.054;2022-07-05T02:15:33;5.20;;;4.80;;
58758;SDS011;46777;47.482;19.054;2022-07-05T02:18:19;6.20;;;4.80;;
58758;SDS011;46777;47.482;19.054;2022-07-05T02:21:04;5.82;;;5.07;;
58758;SDS011;46777;47.482;19.054;2022-07-05T02:23:49;4.72;;;4.40;;
58758;SDS011;46777;47.482;19.054;2022-07-05T02:26:34;5.80;;;5.30;;
58758;SDS011;46777;47.482;19.054;2022-07-05T02:29:19;5.20;;;4.70;;
58758;SDS011;46777;47.482;19.054;2022-07-05T02:32:04;5.22;;;4.82;;
58758;SDS011;46777;47.482;19.054;2022-07-05T02:34:50;6.60;;;5.50;;
58758;SDS011;46777;47.482;19.054;2022-07-05T02:37:35;5.43;;;4.97;;
58758;SDS011;46777;47.482;19.054;2022-07-05T02:40:19;5.65;;;5.15;;
58758;SDS011;46777;47.482;19.054;2022-07-05T02:43:04;6.30;;;5.13;;
58758;SDS011;46777;47.482;19.054;2022-07-05T02:45:49;5.60;;;5.20;;
58758;SDS011;46777;47.482;19.054;2022-07-05T02:48:35;5.60;;;5.10;;
58758;SDS011;46777;47.482;19.054;2022-07-05T02:51:20;5.72;;;5.07;;
58758;SDS011;46777;47.482;19.054;2022-07-05T02:54:05;5.75;;;5.10;;
58758;SDS011;46777;47.482;19.054;2022-07-05T02:56:50;5.00;;;4.47;;
58758;SDS011;46777;47.482;19.054;2022-07-05T02:59:35;5.32;;;4.82;;
58758;SDS011;46777;47.482;19.054;2022-07-05T03:02:20;5.70;;;5.15;;
58758;SDS011;46777;47.482;19.054;2022-07-05T03:05:05;6.05;;;5.40;;
58758;SDS011;46777;47.482;19.054;2022-07-05T03:07:50;6.18;;;5.57;;
58758;SDS011;46777;47.482;19.054;2022-07-05T03:10:35;5.90;;;5.10;;
58758;SDS011;46777;47.482;19.054;2022-07-05T03:13:21;5.22;;;4.72;;
58758;SDS011;46777;47.482;19.054;2022-07-05T03:16:05;5.35;;;4.95;;
58758;SDS011;46777;47.482;19.054;2022-07-05T03:18:50;5.65;;;5.13;;
58758;SDS011;46777;47.482;19.054;2022-07-05T03:21:35;5.40;;;5.00;;
58758;SDS011;46777;47.482;19.054;2022-07-05T03:24:20;6.05;;;5.45;;
58758;SDS011;46777;47.482;19.054;2022-07-05T03:27:05;5.90;;;5.40;;
58758;SDS011;46777;47.482;19.054;2022-07-05T03:29:49;5.70;;;5.20;;
58758;SDS011;46777;47.482;19.054;2022-07-05T03:32:34;5.45;;;5.00;;
58758;SDS011;46777;47.482;19.054;2022-07-05T03:35:19;5.70;;;5.20;;
58758;SDS011;46777;47.482;19.054;2022-07-05T03:38:04;6.25;;;5.70;;
58758;SDS011;46777;47.482;19.054;2022-07-05T03:40:49;5.72;;;5.22;;
58758;SDS011;46777;47.482;19.054;2022-07-05T03:43:34;6.00;;;5.50;;
58758;SDS011;46777;47.482;19.054;2022-07-05T03:46:19;5.93;;;5.43;;
58758;SDS011;46777;47.482;19.054;2022-07-05T03:49:03;6.00;;;5.40;;
58758;SDS011;46777;47.482;19.054;2022-07-05T03:51:48;6.07;;;5.50;;
58758;SDS011;46777;47.482;19.054;2022-07-05T03:54:33;6.30;;;5.70;;
58758;SDS011;46777;47.482;19.054;2022-07-05T03:57:18;6.57;;;6.00;;
58758;SDS011;46777;47.482;19.054;2022-07-05T04:00:03;6.32;;;5.60;;
58758;SDS011;46777;47.482;19.054;2022-07-05T04:02:48;5.97;;;5.45;;
58758;SDS011;46777;47.482;19.054;2022-07-05T04:05:33;5.78;;;5.28;;
58758;SDS011;46777;47.482;19.054;2022-07-05T04:08:18;6.40;;;5.90;;
58758;SDS011;46777;47.482;19.054;2022-07-05T04:11:03;6.68;;;6.07;;
58758;SDS011;46777;47.482;19.054;2022-07-05T04:13:48;6.72;;;6.13;;
58758;SDS011;46777;47.482;19.054;2022-07-05T04:16:33;6.82;;;6.22;;
58758;SDS011;46777;47.482;19.054;2022-07-05T04:19:18;7.13;;;5.88;;
58758;SDS011;46777;47.482;19.054;2022-07-05T04:22:03;6.20;;;5.70;;
58758;SDS011;46777;47.482;19.054;2022-07-05T04:24:48;6.30;;;5.80;;
58758;SDS011;46777;47.482;19.054;2022-07-05T04:27:52;6.72;;;6.22;;
58758;SDS011;46777;47.482;19.054;2022-07-05T04:30:38;6.93;;;6.30;;
58758;SDS011;46777;47.482;19.054;2022-07-05T04:33:23;6.28;;;5.78;;
58758;SDS011;46777;47.482;19.054;2022-07-05T04:36:08;6.00;;;5.50;;
58758;SDS011;46777;47.482;19.054;2022-07-05T04:38:53;6.13;;;5.60;;
58758;SDS011;46777;47.482;19.054;2022-07-05T04:41:38;6.40;;;5.80;;
58758;SDS011;46777;47.482;19.054;2022-07-05T04:44:23;6.18;;;5.60;;
58758;SDS011;46777;47.482;19.054;2022-07-05T04:47:08;6.15;;;5.60;;
58758;SDS011;46777;47.482;19.054;2022-07-05T04:49:53;5.93;;;5.53;;
58758;SDS011;46777;47.482;19.054;2022-07-05T04:52:38;6.13;;;5.53;;
58758;SDS011;46777;47.482;19.054;2022-07-05T04:55:23;6.10;;;5.50;;
58758;SDS011;46777;47.482;19.054;2022-07-05T04:58:07;6.20;;;5.70;;
58758;SDS011;46777;47.482;19.054;2022-07-05T05:00:53;5.60;;;5.10;;
58758;SDS011;46777;47.482;19.054;2022-07-05T05:03:38;5.70;;;5.20;;
58758;SDS011;46777;47.482;19.054;2022-07-05T05:06:22;7.93;;;5.25;;
58758;SDS011;46777;47.482;19.054;2022-07-05T05:09:07;5.65;;;5.15;;
58758;SDS011;46777;47.482;19.054;2022-07-05T05:11:52;5.70;;;5.20;;
58758;SDS011;46777;47.482;19.054;2022-07-05T05:14:37;6.30;;;4.97;;
58758;SDS011;46777;47.482;19.054;2022-07-05T05:17:21;5.53;;;5.13;;
58758;SDS011;46777;47.482;19.054;2022-07-05T05:20:09;8.48;;;7.78;;
58758;SDS011;46777;47.482;19.054;2022-07-05T05:22:58;5.80;;;5.30;;
58758;SDS011;46777;47.482;19.054;2022-07-05T05:25:43;5.90;;;4.80;;
58758;SDS011;46777;47.482;19.054;2022-07-05T05:28:28;5.03;;;4.63;;
58758;SDS011;46777;47.482;19.054;2022-07-05T05:31:13;5.47;;;5.00;;
58758;SDS011;46777;47.482;19.054;2022-07-05T05:33:57;6.20;;;5.10;;
58758;SDS011;46777;47.482;19.054;2022-07-05T05:36:42;6.45;;;5.95;;
58758;SDS011;46777;47.482;19.054;2022-07-05T05:39:27;6.35;;;5.72;;
58758;SDS011;46777;47.482;19.054;2022-07-05T05:42:12;6.35;;;5.85;;
58758;SDS011;46777;47.482;19.054;2022-07-05T05:44:57;6.82;;;6.13;;
58758;SDS011;46777;47.482;19.054;2022-07-05T05:48:03;6.43;;;5.70;;
58758;SDS011;46777;47.482;19.054;2022-07-05T05:50:47;6.55;;;5.90;;
58758;SDS011;46777;47.482;19.054;2022-07-05T05:53:32;6.72;;;6.20;;
58758;SDS011;46777;47.482;19.054;2022-07-05T05:56:17;6.65;;;6.10;;
58758;SDS011;46777;47.482;19.054;2022-07-05T05:59:01;6.95;;;6.35;;
58758;SDS011;46777;47.482;19.054;2022-07-05T06:01:46;6.55;;;5.90;;
58758;SDS011;46777;47.482;19.054;2022-07-05T06:04:31;6.25;;;5.75;;
58758;SDS011;46777;47.482;19.054;2022-07-05T06:07:16;6.55;;;5.90;;
58758;SDS011;46777;47.482;19.054;2022-07-05T06:10:01;7.00;;;6.30;;
58758;SDS011;46777;47.482;19.054;2022-07-05T06:12:46;6.70;;;6.10;;
58758;SDS011;46777;47.482;19.054;2022-07-05T06:15:32;6.22;;;5.82;;
58758;SDS011;46777;47.482;19.054;2022-07-05T06:18:17;6.70;;;6.18;;
58758;SDS011;46777;47.482;19.054;2022-07-05T06:21:02;6.57;;;6.10;;
58758;SDS011;46777;47.482;19.054;2022-07-05T06:23:47;6.40;;;5.90;;
58758;SDS011;46777;47.482;19.054;2022-07-05T06:26:32;7.10;;;6.43;;
58758;SDS011;46777;47.482;19.054;2022-07-05T06:29:16;6.93;;;6.30;;
58758;SDS011;46777;47.482;19.054;2022-07-05T06:32:01;7.50;;;6.80;;
58758;SDS011;46777;47.482;19.054;2022-07-05T06:34:48;6.53;;;6.00;;
58758;SDS011;46777;47.482;19.054;2022-07-05T06:40:32;7.60;;;6.70;;
58758;SDS011;46777;47.482;19.054;2022-07-05T06:43:18;7.30;;;6.70;;
58758;SDS011;46777;47.482;19.054;2022-07-05T06:46:03;7.03;;;6.45;;
58758;SDS011;46777;47.482;19.054;2022-07-05T06:48:48;8.63;;;7.80;;
58758;SDS011;46777;47.482;19.054;2022-07-05T06:51:33;10.73;;;9.73;;
58758;SDS011;46777;47.482;19.054;2022-07-05T06:54:18;8.40;;;7.70;;
58758;SDS011;46777;47.482;19.054;2022-07-05T06:57:03;8.30;;;7.57;;
58758;SDS011;46777;47.482;19.054;2022-07-05T06:59:48;8.80;;;8.00;;
58758;SDS011;46777;47.482;19.054;2022-07-05T07:02:33;8.23;;;6.70;;
58758;SDS011;46777;47.482;19.054;2022-07-05T07:05:18;6.85;;;6.25;;
58758;SDS011;46777;47.482;19.054;2022-07-05T07:08:03;6.68;;;5.97;;
58758;SDS011;46777;47.482;19.054;2022-07-05T07:11:06;6.10;;;5.60;;
58758;SDS011;46777;47.482;19.054;2022-07-05T07:13:51;6.13;;;5.63;;
58758;SDS011;46777;47.482;19.054;2022-07-05T07:16:36;6.53;;;6.03;;
58758;SDS011;46777;47.482;19.054;2022-07-05T07:19:21;6.82;;;6.13;;
58758;SDS011;46777;47.482;19.054;2022-07-05T07:22:06;6.65;;;6.15;;
58758;SDS011;46777;47.482;19.054;2022-07-05T07:24:50;6.78;;;6.18;;
58758;SDS011;46777;47.482;19.054;2022-07-05T07:27:42;7.00;;;6.30;;
58758;SDS011;46777;47.482;19.054;2022-07-05T07:30:31;7.53;;;6.82;;
58758;SDS011;46777;47.482;19.054;2022-07-05T07:33:15;6.90;;;6.20;;
58758;SDS011;46777;47.482;19.054;2022-07-05T07:36:00;7.47;;;6.18;;
58758;SDS011;46777;47.482;19.054;2022-07-05T07:38:45;7.28;;;6.50;;
58758;SDS011;46777;47.482;19.054;2022-07-05T07:41:30;6.30;;;5.70;;
58758;SDS011;46777;47.482;19.054;2022-07-05T07:44:15;6.53;;;5.97;;
58758;SDS011;46777;47.482;19.054;2022-07-05T07:47:00;6.95;;;6.32;;
58758;SDS011;46777;47.482;19.054;2022-07-05T07:49:45;6.57;;;6.07;;
58758;SDS011;46777;47.482;19.054;2022-07-05T07:52:30;6.60;;;6.10;;
58758;SDS011;46777;47.482;19.054;2022-07-05T07:55:15;7.60;;;6.90;;
58758;SDS011;46777;47.482;19.054;2022-07-05T07:57:59;8.07;;;7.40;;
58758;SDS011;46777;47.482;19.054;2022-07-05T08:00:44;8.00;;;7.30;;
58758;SDS011;46777;47.482;19.054;2022-07-05T08:03:29;7.70;;;6.97;;
58758;SDS011;46777;47.482;19.054;2022-07-05T08:06:14;7.53;;;6.90;;
58758;SDS011;46777;47.482;19.054;2022-07-05T08:08:59;7.97;;;7.18;;
58758;SDS011;46777;47.482;19.054;2022-07-05T08:11:45;7.30;;;6.70;;
58758;SDS011;46777;47.482;19.054;2022-07-05T08:14:31;7.53;;;6.93;;
58758;SDS011;46777;47.482;19.054;2022-07-05T08:17:16;7.80;;;7.20;;
58758;SDS011;46777;47.482;19.054;2022-07-05T08:20:00;7.40;;;6.90;;
58758;SDS011;46777;47.482;19.054;2022-07-05T08:23:04;7.15;;;6.63;;
58758;SDS011;46777;47.482;19.054;2022-07-05T08:25:48;9.93;;;8.98;;
58758;SDS011;46777;47.482;19.054;2022-07-05T08:28:33;9.07;;;8.32;;
58758;SDS011;46777;47.482;19.054;2022-07-05T08:31:18;11.27;;;10.38;;
58758;SDS011;46777;47.482;19.054;2022-07-05T08:34:03;11.02;;;10.02;;
58758;SDS011;46777;47.482;19.054;2022-07-05T08:36:48;7.85;;;7.25;;
58758;SDS011;46777;47.482;19.054;2022-07-05T08:39:33;7.50;;;6.90;;
58758;SDS011;46777;47.482;19.054;2022-07-05T08:42:18;7.80;;;7.30;;
58758;SDS011;46777;47.482;19.054;2022-07-05T08:45:03;7.55;;;6.80;;
58758;SDS011;46777;47.482;19.054;2022-07-05T08:47:49;7.10;;;6.50;;
58758;SDS011;46777;47.482;19.054;2022-07-05T08:50:36;7.10;;;6.45;;
58758;SDS011;46777;47.482;19.054;2022-07-05T08:53:23;6.95;;;6.35;;
58758;SDS011;46777;47.482;19.054;2022-07-05T08:56:08;7.22;;;6.57;;
58758;SDS011;46777;47.482;19.054;2022-07-05T08:58:53;7.25;;;6.60;;
58758;SDS011;46777;47.482;19.054;2022-07-05T09:01:39;7.50;;;6.80;;
58758;SDS011;46777;47.482;19.054;2022-07-05T09:04:24;7.47;;;6.75;;
58758;SDS011;46777;47.482;19.054;2022-07-05T09:07:14;7.75;;;7.07;;
58758;SDS011;46777;47.482;19.054;2022-07-05T09:10:01;7.20;;;6.60;;
58758;SDS011;46777;47.482;19.054;2022-07-05T09:12:47;6.68;;;6.18;;
58758;SDS011;46777;47.482;19.054;2022-07-05T09:15:32;6.88;;;6.28;;
58758;SDS011;46777;47.482;19.054;2022-07-05T09:21:24;6.57;;;6.10;;
58758;SDS011;46777;47.482;19.054;2022-07-05T09:24:11;7.15;;;6.50;;
58758;SDS011;46777;47.482;19.054;2022-07-05T09:27:03;7.40;;;6.70;;
58758;SDS011;46777;47.482;19.054;2022-07-05T09:29:55;5.93;;;5.53;;
58758;SDS011;46777;47.482;19.054;2022-07-05T09:32:40;6.97;;;6.38;;
58758;SDS011;46777;47.482;19.054;2022-07-05T09:35:25;7.60;;;6.38;;
58758;SDS011;46777;47.482;19.054;2022-07-05T09:38:19;6.90;;;6.30;;
58758;SDS011;46777;47.482;19.054;2022-07-05T09:41:06;7.13;;;6.53;;
58758;SDS011;46777;47.482;19.054;2022-07-05T09:43:55;8.00;;;6.00;;
58758;SDS011;46777;47.482;19.054;2022-07-05T09:46:40;6.68;;;6.05;;
58758;SDS011;46777;47.482;19.054;2022-07-05T09:49:25;5.95;;;5.53;;
58758;SDS011;46777;47.482;19.054;2022-07-05T09:52:25;6.85;;;6.10;;
58758;SDS011;46777;47.482;19.054;2022-07-05T09:55:15;6.72;;;6.13;;
58758;SDS011;46777;47.482;19.054;2022-07-05T09:58:02;8.18;;;6.70;;
58758;SDS011;46777;47.482;19.054;2022-07-05T10:00:47;7.75;;;7.15;;
58758;SDS011;46777;47.482;19.054;2022-07-05T10:03:32;7.50;;;6.90;;
58758;SDS011;46777;47.482;19.054;2022-07-05T10:06:35;7.60;;;6.80;;
58758;SDS011;46777;47.482;19.054;2022-07-05T10:09:20;7.15;;;6.53;;
58758;SDS011;46777;47.482;19.054;2022-07-05T10:12:06;8.57;;;7.10;;
58758;SDS011;46777;47.482;19.054;2022-07-05T10:14:51;7.50;;;6.68;;
58758;SDS011;46777;47.482;19.054;2022-07-05T10:17:36;7.82;;;7.03;;
58758;SDS011;46777;47.482;19.054;2022-07-05T10:23:21;7.93;;;6.93;;
58758;SDS011;46777;47.482;19.054;2022-07-05T10:26:06;10.18;;;7.03;;
58758;SDS011;46777;47.482;19.054;2022-07-05T10:28:52;8.90;;;7.68;;
58758;SDS011;46777;47.482;19.054;2022-07-05T10:31:37;8.80;;;8.00;;
58758;SDS011;46777;47.482;19.054;2022-07-05T10:34:23;9.13;;;8.32;;
58758;SDS011;46777;47.482;19.054;2022-07-05T10:37:07;9.02;;;8.13;;
58758;SDS011;46777;47.482;19.054;2022-07-05T10:39:53;8.15;;;7.45;;
58758;SDS011;46777;47.482;19.054;2022-07-05T10:42:43;8.20;;;7.40;;
58758;SDS011;46777;47.482;19.054;2022-07-05T10:45:39;8.63;;;7.93;;
58758;SDS011;46777;47.482;19.054;2022-07-05T10:48:31;7.47;;;6.85;;
58758;SDS011;46777;47.482;19.054;2022-07-05T10:51:16;7.55;;;6.80;;
58758;SDS011;46777;47.482;19.054;2022-07-05T10:54:01;7.35;;;6.80;;
58758;SDS011;46777;47.482;19.054;2022-07-05T11:00:08;7.35;;;6.57;;
58758;SDS011;46777;47.482;19.054;2022-07-05T11:03:07;7.57;;;6.85;;
58758;SDS011;46777;47.482;19.054;2022-07-05T11:06:25;7.22;;;6.68;;
58758;SDS011;46777;47.482;19.054;2022-07-05T11:12:01;7.50;;;6.90;;
58758;SDS011;46777;47.482;19.054;2022-07-05T11:14:47;7.43;;;6.80;;
58758;SDS011;46777;47.482;19.054;2022-07-05T11:17:33;7.70;;;6.97;;
58758;SDS011;46777;47.482;19.054;2022-07-05T11:20:27;7.82;;;7.13;;
58758;SDS011;46777;47.482;19.054;2022-07-05T11:23:13;7.85;;;7.00;;
58758;SDS011;46777;47.482;19.054;2022-07-05T11:25:58;7.70;;;7.00;;
58758;SDS011;46777;47.482;19.054;2022-07-05T11:28:46;7.35;;;6.75;;
58758;SDS011;46777;47.482;19.054;2022-07-05T11:31:41;6.95;;;6.35;;
58758;SDS011;46777;47.482;19.054;2022-07-05T11:34:34;7.40;;;6.75;;
58758;SDS011;46777;47.482;19.054;2022-07-05T11:37:20;8.45;;;6.88;;
58758;SDS011;46777;47.482;19.054;2022-07-05T11:42:56;7.40;;;6.60;;
58758;SDS011;46777;47.482;19.054;2022-07-05T11:45:41;7.32;;;6.63;;
58758;SDS011;46777;47.482;19.054;2022-07-05T11:48:29;7.68;;;6.93;;
58758;SDS011;46777;47.482;19.054;2022-07-05T11:51:14;7.88;;;7.07;;
58758;SDS011;46777;47.482;19.054;2022-07-05T11:53:59;7.22;;;6.60;;
58758;SDS011;46777;47.482;19.054;2022-07-05T11:56:45;7.68;;;6.97;;
58758;SDS011;46777;47.482;19.054;2022-07-05T11:59:30;7.55;;;6.75;;
58758;SDS011;46777;47.482;19.054;2022-07-05T12:02:15;7.30;;;6.70;;
58758;SDS011;46777;47.482;19.054;2022-07-05T12:05:00;7.50;;;6.80;;
58758;SDS011;46777;47.482;19.054;2022-07-05T12:07:52;7.60;;;6.90;;
58758;SDS011;46777;47.482;19.054;2022-07-05T12:10:36;8.27;;;7.50;;
58758;SDS011;46777;47.482;19.054;2022-07-05T12:13:44;7.93;;;7.13;;
58758;SDS011;46777;47.482;19.054;2022-07-05T12:16:33;8.10;;;7.32;;
58758;SDS011;46777;47.482;19.054;2022-07-05T12:19:24;8.90;;;8.07;;
58758;SDS011;46777;47.482;19.054;2022-07-05T12:22:10;9.18;;;8.27;;
58758;SDS011;46777;47.482;19.054;2022-07-05T12:24:55;8.93;;;8.10;;
58758;SDS011;46777;47.482;19.054;2022-07-05T12:27:42;8.80;;;8.00;;
58758;SDS011;46777;47.482;19.054;2022-07-05T12:30:29;8.48;;;7.68;;
58758;SDS011;46777;47.482;19.054;2022-07-05T12:33:14;8.45;;;7.65;;
58758;SDS011;46777;47.482;19.054;2022-07-05T12:35:59;8.50;;;7.80;;
58758;SDS011;46777;47.482;19.054;2022-07-05T12:38:44;8.02;;;7.10;;
58758;SDS011;46777;47.482;19.054;2022-07-05T12:41:29;8.73;;;8.02;;
58758;SDS011;46777;47.482;19.054;2022-07-05T12:44:17;7.60;;;6.90;;
58758;SDS011;46777;47.482;19.054;2022-07-05T12:47:04;7.65;;;7.05;;
58758;SDS011;46777;47.482;19.054;2022-07-05T12:49:53;7.85;;;7.15;;
58758;SDS011;46777;47.482;19.054;2022-07-05T12:56:09;7.63;;;7.07;;
58758;SDS011;46777;47.482;19.054;2022-07-05T12:59:15;7.95;;;7.32;;
58758;SDS011;46777;47.482;19.054;2022-07-05T13:02:00;8.82;;;8.02;;
58758;SDS011;46777;47.482;19.054;2022-07-05T13:04:52;7.63;;;7.03;;
58758;SDS011;46777;47.482;19.054;2022-07-05T13:07:41;7.20;;;6.65;;
58758;SDS011;46777;47.482;19.054;2022-07-05T13:10:27;6.80;;;6.20;;
58758;SDS011;46777;47.482;19.054;2022-07-05T13:13:16;7.25;;;6.65;;
58758;SDS011;46777;47.482;19.054;2022-07-05T13:16:04;6.95;;;6.45;;
58758;SDS011;46777;47.482;19.054;2022-07-05T13:18:49;7.22;;;6.53;;
58758;SDS011;46777;47.482;19.054;2022-07-05T13:21:34;7.50;;;6.90;;
58758;SDS011;46777;47.482;19.054;2022-07-05T13:24:19;6.90;;;6.30;;
58758;SDS011;46777;47.482;19.054;2022-07-05T13:27:04;7.28;;;6.68;;
58758;SDS011;46777;47.482;19.054;2022-07-05T13:29:50;7.28;;;6.72;;
58758;SDS011;46777;47.482;19.054;2022-07-05T13:32:35;9.10;;;8.50;;
58758;SDS011;46777;47.482;19.054;2022-07-05T13:35:20;6.80;;;6.30;;
58758;SDS011;46777;47.482;19.054;2022-07-05T13:38:05;7.05;;;6.45;;
58758;SDS011;46777;47.482;19.054;2022-07-05T13:40:49;6.80;;;6.30;;
58758;SDS011;46777;47.482;19.054;2022-07-05T13:43:34;7.55;;;6.95;;
58758;SDS011;46777;47.482;19.054;2022-07-05T13:46:19;7.28;;;6.70;;
58758;SDS011;46777;47.482;19.054;2022-07-05T13:49:04;7.75;;;6.95;;
58758;SDS011;46777;47.482;19.054;2022-07-05T13:51:49;7.38;;;6.80;;
58758;SDS011;46777;47.482;19.054;2022-07-05T13:54:34;7.72;;;7.13;;
58758;SDS011;46777;47.482;19.054;2022-07-05T13:57:19;7.40;;;6.80;;
58758;SDS011;46777;47.482;19.054;2022-07-05T14:00:04;7.50;;;6.90;;
58758;SDS011;46777;47.482;19.054;2022-07-05T14:02:50;7.43;;;6.72;;
58758;SDS011;46777;47.482;19.054;2022-07-05T14:05:35;8.10;;;7.50;;
58758;SDS011;46777;47.482;19.054;2022-07-05T14:08:20;7.70;;;7.03;;
58758;SDS011;46777;47.482;19.054;2022-07-05T14:11:08;7.50;;;7.00;;
58758;SDS011;46777;47.482;19.054;2022-07-05T14:13:54;7.60;;;6.97;;
58758;SDS011;46777;47.482;19.054;2022-07-05T14:16:39;7.50;;;6.80;;
58758;SDS011;46777;47.482;19.054;2022-07-05T14:19:24;7.18;;;6.68;;
58758;SDS011;46777;47.482;19.054;2022-07-05T14:22:08;7.20;;;6.60;;
58758;SDS011;46777;47.482;19.054;2022-07-05T14:24:53;7.40;;;6.80;;
58758;SDS011;46777;47.482;19.054;2022-07-05T14:27:38;6.70;;;6.20;;
58758;SDS011;46777;47.482;19.054;2022-07-05T14:30:23;7.50;;;7.00;;
58758;SDS011;46777;47.482;19.054;2022-07-05T14:33:08;7.93;;;7.13;;
58758;SDS011;46777;47.482;19.054;2022-07-05T14:35:54;7.55;;;6.80;;
58758;SDS011;46777;47.482;19.054;2022-07-05T14:38:39;7.10;;;6.57;;
58758;SDS011;46777;47.482;19.054;2022-07-05T14:41:23;7.40;;;6.80;;
58758;SDS011;46777;47.482;19.054;2022-07-05T14:44:08;7.45;;;6.70;;
58758;SDS011;46777;47.482;19.054;2022-07-05T14:46:53;7.28;;;6.68;;
58758;SDS011;46777;47.482;19.054;2022-07-05T14:49:38;7.00;;;6.38;;
58758;SDS011;46777;47.482;19.054;2022-07-05T14:52:23;7.10;;;6.47;;
58758;SDS011;46777;47.482;19.054;2022-07-05T14:55:08;6.88;;;6.28;;
58758;SDS011;46777;47.482;19.054;2022-07-05T14:57:53;7.03;;;6.47;;
58758;SDS011;46777;47.482;19.054;2022-07-05T15:00:38;7.25;;;6.63;;
58758;SDS011;46777;47.482;19.054;2022-07-05T15:03:23;7.82;;;7.13;;
58758;SDS011;46777;47.482;19.054;2022-07-05T15:06:09;7.22;;;6.63;;
58758;SDS011;46777;47.482;19.054;2022-07-05T15:08:54;7.75;;;7.00;;
58758;SDS011;46777;47.482;19.054;2022-07-05T15:11:39;7.13;;;6.53;;
58758;SDS011;46777;47.482;19.054;2022-07-05T15:14:24;8.60;;;7.90;;
58758;SDS011;46777;47.482;19.054;2022-07-05T15:17:11;6.88;;;6.35;;
58758;SDS011;46777;47.482;19.054;2022-07-05T15:19:56;7.20;;;6.68;;
58758;SDS011;46777;47.482;19.054;2022-07-05T15:22:41;7.53;;;6.93;;
58758;SDS011;46777;47.482;19.054;2022-07-05T15:25:26;7.22;;;6.68;;
58758;SDS011;46777;47.482;19.054;2022-07-05T15:28:11;6.93;;;6.40;;
58758;SDS011;46777;47.482;19.054;2022-07-05T15:30:55;7.50;;;6.78;;
58758;SDS011;46777;47.482;19.054;2022-07-05T15:33:40;7.00;;;6.43;;
58758;SDS011;46777;47.482;19.054;2022-07-05T15:36:25;7.63;;;6.93;;
58758;SDS011;46777;47.482;19.054;2022-07-05T15:39:10;7.80;;;7.10;;
58758;SDS011;46777;47.482;19.054;2022-07-05T15:41:55;6.97;;;6.38;;
58758;SDS011;46777;47.482;19.054;2022-07-05T15:44:40;6.18;;;5.60;;
58758;SDS011;46777;47.482;19.054;2022-07-05T15:47:25;6.07;;;5.63;;
58758;SDS011;46777;47.482;19.054;2022-07-05T15:50:12;6.82;;;6.13;;
58758;SDS011;46777;47.482;19.054;2022-07-05T15:52:57;7.50;;;6.80;;
58758;SDS011;46777;47.482;19.054;2022-07-05T15:55:41;6.90;;;6.40;;
58758;SDS011;46777;47.482;19.054;2022-07-05T15:58:27;6.60;;;6.07;;
58758;SDS011;46777;47.482;19.054;2022-07-05T16:01:16;6.78;;;6.18;;
58758;SDS011;46777;47.482;19.054;2022-07-05T16:04:00;6.50;;;6.00;;
58758;SDS011;46777;47.482;19.054;2022-07-05T16:06:45;5.90;;;5.40;;
58758;SDS011;46777;47.482;19.054;2022-07-05T16:09:30;6.65;;;6.15;;
58758;SDS011;46777;47.482;19.054;2022-07-05T16:12:19;6.85;;;6.35;;
58758;SDS011;46777;47.482;19.054;2022-07-05T16:15:04;7.13;;;6.50;;
58758;SDS011;46777;47.482;19.054;2022-07-05T16:17:51;6.80;;;6.20;;
58758;SDS011;46777;47.482;19.054;2022-07-05T16:20:36;6.97;;;6.47;;
58758;SDS011;46777;47.482;19.054;2022-07-05T16:23:20;7.32;;;6.72;;
58758;SDS011;46777;47.482;19.054;2022-07-05T16:26:05;6.65;;;6.13;;
58758;SDS011;46777;47.482;19.054;2022-07-05T16:28:51;6.50;;;6.00;;
58758;SDS011;46777;47.482;19.054;2022-07-05T16:31:36;5.93;;;5.50;;
58758;SDS011;46777;47.482;19.054;2022-07-05T16:34:21;6.55;;;6.05;;
58758;SDS011;46777;47.482;19.054;2022-07-05T16:37:05;6.53;;;5.93;;
58758;SDS011;46777;47.482;19.054;2022-07-05T16:39:53;6.70;;;5.88;;
58758;SDS011;46777;47.482;19.054;2022-07-05T16:42:38;6.78;;;6.15;;
58758;SDS011;46777;47.482;19.054;2022-07-05T16:45:22;6.00;;;5.50;;